sensor_id;sensor_type;location;lat;lon;timestamp;P1;durP1;ratioP1;P2;durP2;ratioP2
49728;SDS011;35617;50.714;7.114;2022-11-20T00:01:04;24.80;;;15.53;;
49728;SDS011;35617;50.714;7.114;2022-11-20T00:03:31;25.27;;;15.47;;
49728;SDS011;35617;50.714;7.114;2022-11-20T00:06:03;25.47;;;15.80;;
49728;SDS011;35617;50.714;7.114;2022-11-20T00:08:30;25.40;;;15.68;;
49728;SDS011;35617;50.714;7.114;2022-11-20T00:10:56;26.33;;;15.60;;
49728;SDS011;35617;50.714;7.114;2022-11-20T00:13:22;24.90;;;15.03;;
49728;SDS011;35617;50.714;7.114;2022-11-20T00:15:48;26.03;;;15.10;;
49728;SDS011;35617;50.714;7.114;2022-11-20T00:18:14;26.97;;;15.50;;
49728;SDS011;35617;50.714;7.114;2022-11-20T00:20:39;24.80;;;14.80;;
49728;SDS011;35617;50.714;7.114;2022-11-20T00:23:05;26.60;;;15.77;;
49728;SDS011;35617;50.714;7.114;2022-11-20T00:25:33;27.03;;;16.43;;
49728;SDS011;35617;50.714;7.114;2022-11-20T00:27:59;27.13;;;16.00;;
49728;SDS011;35617;50.714;7.114;2022-11-20T00:30:25;25.87;;;16.03;;
49728;SDS011;35617;50.714;7.114;2022-11-20T00:32:50;26.00;;;15.20;;
49728;SDS011;35617;50.714;7.114;2022-11-20T00:35:16;25.80;;;15.67;;
49728;SDS011;35617;50.714;7.114;2022-11-20T00:37:41;26.43;;;15.80;;
49728;SDS011;35617;50.714;7.114;2022-11-20T00:40:07;27.10;;;16.47;;
49728;SDS011;35617;50.714;7.114;2022-11-20T00:42:33;27.60;;;16.77;;
49728;SDS011;35617;50.714;7.114;2022-11-20T00:45:01;28.40;;;16.73;;
49728;SDS011;35617;50.714;7.114;2022-11-20T00:47:27;26.50;;;15.73;;
49728;SDS011;35617;50.714;7.114;2022-11-20T00:49:53;28.90;;;17.20;;
49728;SDS011;35617;50.714;7.114;2022-11-20T00:52:18;24.90;;;15.47;;
49728;SDS011;35617;50.714;7.114;2022-11-20T00:54:44;28.90;;;15.70;;
49728;SDS011;35617;50.714;7.114;2022-11-20T00:57:10;27.07;;;16.30;;
49728;SDS011;35617;50.714;7.114;2022-11-20T00:59:36;26.63;;;15.73;;
49728;SDS011;35617;50.714;7.114;2022-11-20T01:02:01;26.70;;;15.93;;
49728;SDS011;35617;50.714;7.114;2022-11-20T01:04:27;27.50;;;16.00;;
49728;SDS011;35617;50.714;7.114;2022-11-20T01:06:52;25.93;;;15.57;;
49728;SDS011;35617;50.714;7.114;2022-11-20T01:09:18;29.67;;;16.87;;
49728;SDS011;35617;50.714;7.114;2022-11-20T01:11:44;26.67;;;15.80;;
49728;SDS011;35617;50.714;7.114;2022-11-20T01:14:11;29.27;;;16.43;;
49728;SDS011;35617;50.714;7.114;2022-11-20T01:16:42;26.27;;;16.27;;
49728;SDS011;35617;50.714;7.114;2022-11-20T01:19:14;29.00;;;16.77;;
49728;SDS011;35617;50.714;7.114;2022-11-20T01:21:43;27.63;;;15.97;;
49728;SDS011;35617;50.714;7.114;2022-11-20T01:24:11;27.07;;;16.43;;
49728;SDS011;35617;50.714;7.114;2022-11-20T01:26:38;26.00;;;15.87;;
49728;SDS011;35617;50.714;7.114;2022-11-20T01:29:06;27.47;;;15.67;;
49728;SDS011;35617;50.714;7.114;2022-11-20T01:31:36;27.00;;;16.07;;
49728;SDS011;35617;50.714;7.114;2022-11-20T01:34:03;28.93;;;16.27;;
49728;SDS011;35617;50.714;7.114;2022-11-20T01:36:31;25.20;;;15.83;;
49728;SDS011;35617;50.714;7.114;2022-11-20T01:38:59;26.20;;;15.07;;
49728;SDS011;35617;50.714;7.114;2022-11-20T01:41:27;25.27;;;15.63;;
49728;SDS011;35617;50.714;7.114;2022-11-20T01:44:13;24.47;;;15.03;;
49728;SDS011;35617;50.714;7.114;2022-11-20T01:47:24;24.17;;;15.07;;
49728;SDS011;35617;50.714;7.114;2022-11-20T01:49:35;26.70;;;14.97;;
49728;SDS011;35617;50.714;7.114;2022-11-20T01:52:17;26.57;;;15.30;;
49728;SDS011;35617;50.714;7.114;2022-11-20T01:54:59;26.20;;;15.23;;
49728;SDS011;35617;50.714;7.114;2022-11-20T01:57:32;25.95;;;15.45;;
49728;SDS011;35617;50.714;7.114;2022-11-20T02:00:03;24.40;;;14.87;;
49728;SDS011;35617;50.714;7.114;2022-11-20T02:02:32;24.33;;;14.83;;
49728;SDS011;35617;50.714;7.114;2022-11-20T02:05:00;26.60;;;15.40;;
49728;SDS011;35617;50.714;7.114;2022-11-20T02:07:34;28.63;;;16.57;;
49728;SDS011;35617;50.714;7.114;2022-11-20T02:10:00;25.30;;;15.03;;
49728;SDS011;35617;50.714;7.114;2022-11-20T02:12:26;24.87;;;14.37;;
49728;SDS011;35617;50.714;7.114;2022-11-20T02:15:11;23.75;;;14.00;;
49728;SDS011;35617;50.714;7.114;2022-11-20T02:17:36;24.60;;;15.33;;
49728;SDS011;35617;50.714;7.114;2022-11-20T02:20:02;25.20;;;15.37;;
49728;SDS011;35617;50.714;7.114;2022-11-20T02:22:31;24.83;;;15.00;;
49728;SDS011;35617;50.714;7.114;2022-11-20T02:25:03;27.13;;;16.05;;
49728;SDS011;35617;50.714;7.114;2022-11-20T02:27:31;27.00;;;16.27;;
49728;SDS011;35617;50.714;7.114;2022-11-20T02:29:57;24.53;;;15.40;;
49728;SDS011;35617;50.714;7.114;2022-11-20T02:32:35;25.97;;;15.03;;
49728;SDS011;35617;50.714;7.114;2022-11-20T02:35:06;24.83;;;15.70;;
49728;SDS011;35617;50.714;7.114;2022-11-20T02:37:33;25.87;;;15.57;;
49728;SDS011;35617;50.714;7.114;2022-11-20T02:40:01;26.77;;;16.40;;
49728;SDS011;35617;50.714;7.114;2022-11-20T02:42:27;24.50;;;15.60;;
49728;SDS011;35617;50.714;7.114;2022-11-20T02:44:53;27.37;;;15.63;;
49728;SDS011;35617;50.714;7.114;2022-11-20T02:47:19;26.23;;;16.00;;
49728;SDS011;35617;50.714;7.114;2022-11-20T02:49:44;27.80;;;15.73;;
49728;SDS011;35617;50.714;7.114;2022-11-20T02:52:10;24.87;;;14.90;;
49728;SDS011;35617;50.714;7.114;2022-11-20T02:54:35;26.63;;;15.77;;
49728;SDS011;35617;50.714;7.114;2022-11-20T02:57:01;27.17;;;15.87;;
49728;SDS011;35617;50.714;7.114;2022-11-20T02:59:27;24.63;;;14.10;;
49728;SDS011;35617;50.714;7.114;2022-11-20T03:01:52;25.57;;;16.03;;
49728;SDS011;35617;50.714;7.114;2022-11-20T03:04:18;25.17;;;15.33;;
49728;SDS011;35617;50.714;7.114;2022-11-20T03:06:43;25.67;;;15.40;;
49728;SDS011;35617;50.714;7.114;2022-11-20T03:09:09;25.47;;;16.07;;
49728;SDS011;35617;50.714;7.114;2022-11-20T03:11:35;26.20;;;15.57;;
49728;SDS011;35617;50.714;7.114;2022-11-20T03:14:04;27.80;;;16.83;;
49728;SDS011;35617;50.714;7.114;2022-11-20T03:16:30;25.30;;;15.27;;
49728;SDS011;35617;50.714;7.114;2022-11-20T03:18:56;25.07;;;15.13;;
49728;SDS011;35617;50.714;7.114;2022-11-20T03:21:22;26.87;;;15.93;;
49728;SDS011;35617;50.714;7.114;2022-11-20T03:23:47;26.77;;;14.90;;
49728;SDS011;35617;50.714;7.114;2022-11-20T03:26:14;24.97;;;14.83;;
49728;SDS011;35617;50.714;7.114;2022-11-20T03:28:45;27.40;;;15.23;;
49728;SDS011;35617;50.714;7.114;2022-11-20T03:31:14;28.07;;;15.87;;
49728;SDS011;35617;50.714;7.114;2022-11-20T03:33:41;27.93;;;15.80;;
49728;SDS011;35617;50.714;7.114;2022-11-20T03:36:08;29.83;;;17.43;;
49728;SDS011;35617;50.714;7.114;2022-11-20T03:38:36;28.33;;;16.77;;
49728;SDS011;35617;50.714;7.114;2022-11-20T03:41:02;31.47;;;17.47;;
49728;SDS011;35617;50.714;7.114;2022-11-20T03:43:32;28.90;;;16.57;;
49728;SDS011;35617;50.714;7.114;2022-11-20T03:45:59;33.23;;;17.90;;
49728;SDS011;35617;50.714;7.114;2022-11-20T03:48:25;30.50;;;16.97;;
49728;SDS011;35617;50.714;7.114;2022-11-20T03:50:51;32.37;;;16.37;;
49728;SDS011;35617;50.714;7.114;2022-11-20T03:53:18;28.23;;;15.77;;
49728;SDS011;35617;50.714;7.114;2022-11-20T03:55:44;30.53;;;16.33;;
49728;SDS011;35617;50.714;7.114;2022-11-20T03:58:15;30.90;;;16.90;;
49728;SDS011;35617;50.714;7.114;2022-11-20T04:00:40;30.80;;;17.20;;
49728;SDS011;35617;50.714;7.114;2022-11-20T04:03:06;30.43;;;17.03;;
49728;SDS011;35617;50.714;7.114;2022-11-20T04:05:32;29.07;;;17.03;;
49728;SDS011;35617;50.714;7.114;2022-11-20T04:07:59;28.77;;;16.10;;
49728;SDS011;35617;50.714;7.114;2022-11-20T04:10:25;30.50;;;16.30;;
49728;SDS011;35617;50.714;7.114;2022-11-20T04:12:50;32.57;;;16.67;;
49728;SDS011;35617;50.714;7.114;2022-11-20T04:15:16;28.20;;;16.27;;
49728;SDS011;35617;50.714;7.114;2022-11-20T04:17:42;32.93;;;16.83;;
49728;SDS011;35617;50.714;7.114;2022-11-20T04:20:08;32.60;;;16.30;;
49728;SDS011;35617;50.714;7.114;2022-11-20T04:22:34;31.40;;;16.47;;
49728;SDS011;35617;50.714;7.114;2022-11-20T04:24:59;30.33;;;16.83;;
49728;SDS011;35617;50.714;7.114;2022-11-20T04:27:25;31.70;;;16.60;;
49728;SDS011;35617;50.714;7.114;2022-11-20T04:29:51;30.90;;;16.40;;
49728;SDS011;35617;50.714;7.114;2022-11-20T04:32:16;32.63;;;16.83;;
49728;SDS011;35617;50.714;7.114;2022-11-20T04:34:42;31.83;;;17.00;;
49728;SDS011;35617;50.714;7.114;2022-11-20T04:37:07;30.73;;;16.83;;
49728;SDS011;35617;50.714;7.114;2022-11-20T04:39:33;30.10;;;17.43;;
49728;SDS011;35617;50.714;7.114;2022-11-20T04:41:58;32.67;;;18.07;;
49728;SDS011;35617;50.714;7.114;2022-11-20T04:44:42;30.33;;;17.23;;
49728;SDS011;35617;50.714;7.114;2022-11-20T04:47:08;29.07;;;16.23;;
49728;SDS011;35617;50.714;7.114;2022-11-20T04:49:33;29.67;;;16.03;;
49728;SDS011;35617;50.714;7.114;2022-11-20T04:51:59;29.13;;;16.07;;
49728;SDS011;35617;50.714;7.114;2022-11-20T04:54:25;29.40;;;16.77;;
49728;SDS011;35617;50.714;7.114;2022-11-20T04:56:50;30.10;;;16.27;;
49728;SDS011;35617;50.714;7.114;2022-11-20T04:59:16;30.27;;;15.93;;
49728;SDS011;35617;50.714;7.114;2022-11-20T05:01:42;30.27;;;16.80;;
49728;SDS011;35617;50.714;7.114;2022-11-20T05:04:07;27.90;;;16.00;;
49728;SDS011;35617;50.714;7.114;2022-11-20T05:06:33;30.57;;;16.50;;
49728;SDS011;35617;50.714;7.114;2022-11-20T05:08:59;29.87;;;16.57;;
49728;SDS011;35617;50.714;7.114;2022-11-20T05:11:25;30.67;;;16.40;;
49728;SDS011;35617;50.714;7.114;2022-11-20T05:13:53;31.63;;;17.17;;
49728;SDS011;35617;50.714;7.114;2022-11-20T05:16:21;32.73;;;17.67;;
49728;SDS011;35617;50.714;7.114;2022-11-20T05:18:48;30.47;;;16.57;;
49728;SDS011;35617;50.714;7.114;2022-11-20T05:21:14;31.93;;;16.87;;
49728;SDS011;35617;50.714;7.114;2022-11-20T05:23:41;30.17;;;16.63;;
49728;SDS011;35617;50.714;7.114;2022-11-20T05:26:17;31.33;;;16.60;;
49728;SDS011;35617;50.714;7.114;2022-11-20T05:28:44;29.35;;;16.08;;
49728;SDS011;35617;50.714;7.114;2022-11-20T05:31:11;29.90;;;16.10;;
49728;SDS011;35617;50.714;7.114;2022-11-20T05:33:59;30.43;;;16.50;;
49728;SDS011;35617;50.714;7.114;2022-11-20T05:36:27;29.10;;;16.03;;
49728;SDS011;35617;50.714;7.114;2022-11-20T05:38:53;30.30;;;16.93;;
49728;SDS011;35617;50.714;7.114;2022-11-20T05:41:19;31.40;;;16.50;;
49728;SDS011;35617;50.714;7.114;2022-11-20T05:43:45;33.47;;;16.23;;
49728;SDS011;35617;50.714;7.114;2022-11-20T05:46:13;32.33;;;16.90;;
49728;SDS011;35617;50.714;7.114;2022-11-20T05:48:40;30.80;;;17.17;;
49728;SDS011;35617;50.714;7.114;2022-11-20T05:51:08;30.00;;;16.33;;
49728;SDS011;35617;50.714;7.114;2022-11-20T05:53:35;30.63;;;17.87;;
49728;SDS011;35617;50.714;7.114;2022-11-20T05:56:02;29.60;;;16.23;;
49728;SDS011;35617;50.714;7.114;2022-11-20T05:58:32;31.27;;;16.97;;
49728;SDS011;35617;50.714;7.114;2022-11-20T06:03:34;32.00;;;17.33;;
49728;SDS011;35617;50.714;7.114;2022-11-20T06:06:01;32.87;;;17.87;;
49728;SDS011;35617;50.714;7.114;2022-11-20T06:08:27;33.37;;;18.07;;
49728;SDS011;35617;50.714;7.114;2022-11-20T06:10:53;38.00;;;18.67;;
49728;SDS011;35617;50.714;7.114;2022-11-20T06:13:19;35.87;;;18.20;;
49728;SDS011;35617;50.714;7.114;2022-11-20T06:15:48;33.67;;;18.37;;
49728;SDS011;35617;50.714;7.114;2022-11-20T06:18:15;35.00;;;17.70;;
49728;SDS011;35617;50.714;7.114;2022-11-20T06:20:41;35.77;;;18.27;;
49728;SDS011;35617;50.714;7.114;2022-11-20T06:23:06;34.03;;;17.80;;
49728;SDS011;35617;50.714;7.114;2022-11-20T06:25:32;35.13;;;17.50;;
49728;SDS011;35617;50.714;7.114;2022-11-20T06:27:57;37.77;;;17.53;;
49728;SDS011;35617;50.714;7.114;2022-11-20T06:30:23;36.33;;;17.60;;
49728;SDS011;35617;50.714;7.114;2022-11-20T06:32:48;37.70;;;18.33;;
49728;SDS011;35617;50.714;7.114;2022-11-20T06:35:14;36.20;;;17.33;;
49728;SDS011;35617;50.714;7.114;2022-11-20T06:37:40;35.97;;;17.60;;
49728;SDS011;35617;50.714;7.114;2022-11-20T06:40:05;37.13;;;18.53;;
49728;SDS011;35617;50.714;7.114;2022-11-20T06:42:32;38.83;;;19.20;;
49728;SDS011;35617;50.714;7.114;2022-11-20T06:44:57;37.83;;;18.67;;
49728;SDS011;35617;50.714;7.114;2022-11-20T06:47:23;37.67;;;18.33;;
49728;SDS011;35617;50.714;7.114;2022-11-20T06:49:48;33.13;;;16.60;;
49728;SDS011;35617;50.714;7.114;2022-11-20T06:52:14;33.00;;;16.40;;
49728;SDS011;35617;50.714;7.114;2022-11-20T06:54:39;30.00;;;16.77;;
49728;SDS011;35617;50.714;7.114;2022-11-20T06:57:05;30.90;;;16.17;;
49728;SDS011;35617;50.714;7.114;2022-11-20T06:59:31;28.13;;;15.50;;
49728;SDS011;35617;50.714;7.114;2022-11-20T07:01:56;26.60;;;14.80;;
49728;SDS011;35617;50.714;7.114;2022-11-20T07:04:22;28.87;;;15.30;;
49728;SDS011;35617;50.714;7.114;2022-11-20T07:06:48;25.27;;;14.47;;
49728;SDS011;35617;50.714;7.114;2022-11-20T07:09:13;27.13;;;15.10;;
49728;SDS011;35617;50.714;7.114;2022-11-20T07:11:39;24.57;;;14.33;;
49728;SDS011;35617;50.714;7.114;2022-11-20T07:14:04;25.23;;;14.73;;
49728;SDS011;35617;50.714;7.114;2022-11-20T07:16:30;25.47;;;14.90;;
49728;SDS011;35617;50.714;7.114;2022-11-20T07:18:56;25.93;;;14.70;;
49728;SDS011;35617;50.714;7.114;2022-11-20T07:21:21;25.57;;;14.93;;
49728;SDS011;35617;50.714;7.114;2022-11-20T07:23:47;23.10;;;14.87;;
49728;SDS011;35617;50.714;7.114;2022-11-20T07:26:12;28.67;;;15.07;;
49728;SDS011;35617;50.714;7.114;2022-11-20T07:28:38;27.03;;;15.07;;
49728;SDS011;35617;50.714;7.114;2022-11-20T07:31:04;25.47;;;14.47;;
49728;SDS011;35617;50.714;7.114;2022-11-20T07:33:31;26.87;;;14.90;;
49728;SDS011;35617;50.714;7.114;2022-11-20T07:36:00;24.17;;;14.23;;
49728;SDS011;35617;50.714;7.114;2022-11-20T07:38:26;24.77;;;14.20;;
49728;SDS011;35617;50.714;7.114;2022-11-20T07:40:58;24.23;;;14.40;;
49728;SDS011;35617;50.714;7.114;2022-11-20T07:43:26;22.90;;;13.90;;
49728;SDS011;35617;50.714;7.114;2022-11-20T07:45:54;25.37;;;14.30;;
49728;SDS011;35617;50.714;7.114;2022-11-20T07:48:20;25.93;;;15.13;;
49728;SDS011;35617;50.714;7.114;2022-11-20T07:50:46;26.40;;;14.63;;
49728;SDS011;35617;50.714;7.114;2022-11-20T07:53:12;24.90;;;14.67;;
49728;SDS011;35617;50.714;7.114;2022-11-20T07:55:38;24.33;;;14.30;;
49728;SDS011;35617;50.714;7.114;2022-11-20T07:58:04;24.57;;;14.80;;
49728;SDS011;35617;50.714;7.114;2022-11-20T08:00:30;25.67;;;14.80;;
49728;SDS011;35617;50.714;7.114;2022-11-20T08:02:56;24.57;;;14.57;;
49728;SDS011;35617;50.714;7.114;2022-11-20T08:05:21;24.50;;;13.50;;
49728;SDS011;35617;50.714;7.114;2022-11-20T08:07:47;26.07;;;14.20;;
49728;SDS011;35617;50.714;7.114;2022-11-20T08:10:13;24.97;;;14.33;;
49728;SDS011;35617;50.714;7.114;2022-11-20T08:12:47;25.57;;;14.53;;
49728;SDS011;35617;50.714;7.114;2022-11-20T08:15:36;25.92;;;14.52;;
49728;SDS011;35617;50.714;7.114;2022-11-20T08:18:05;24.93;;;14.27;;
49728;SDS011;35617;50.714;7.114;2022-11-20T08:20:32;24.80;;;14.40;;
49728;SDS011;35617;50.714;7.114;2022-11-20T08:23:01;24.13;;;14.47;;
49728;SDS011;35617;50.714;7.114;2022-11-20T08:25:30;23.87;;;14.70;;
49728;SDS011;35617;50.714;7.114;2022-11-20T08:28:00;26.43;;;15.23;;
49728;SDS011;35617;50.714;7.114;2022-11-20T08:30:28;25.67;;;15.00;;
49728;SDS011;35617;50.714;7.114;2022-11-20T08:32:54;25.83;;;14.93;;
49728;SDS011;35617;50.714;7.114;2022-11-20T08:35:25;27.57;;;15.07;;
49728;SDS011;35617;50.714;7.114;2022-11-20T08:37:51;28.67;;;16.60;;
49728;SDS011;35617;50.714;7.114;2022-11-20T08:40:16;27.50;;;16.37;;
49728;SDS011;35617;50.714;7.114;2022-11-20T08:42:48;28.87;;;16.47;;
49728;SDS011;35617;50.714;7.114;2022-11-20T08:45:16;26.33;;;15.55;;
49728;SDS011;35617;50.714;7.114;2022-11-20T08:47:44;25.13;;;15.53;;
49728;SDS011;35617;50.714;7.114;2022-11-20T08:50:10;28.30;;;15.97;;
49728;SDS011;35617;50.714;7.114;2022-11-20T08:52:38;25.57;;;15.70;;
49728;SDS011;35617;50.714;7.114;2022-11-20T08:55:04;29.57;;;15.70;;
49728;SDS011;35617;50.714;7.114;2022-11-20T08:57:34;25.90;;;15.87;;
49728;SDS011;35617;50.714;7.114;2022-11-20T09:00:02;25.93;;;15.40;;
49728;SDS011;35617;50.714;7.114;2022-11-20T09:02:30;26.53;;;15.43;;
49728;SDS011;35617;50.714;7.114;2022-11-20T09:04:55;27.73;;;16.37;;
49728;SDS011;35617;50.714;7.114;2022-11-20T09:07:21;28.97;;;16.70;;
49728;SDS011;35617;50.714;7.114;2022-11-20T09:09:47;27.37;;;16.40;;
49728;SDS011;35617;50.714;7.114;2022-11-20T09:12:12;28.57;;;17.27;;
49728;SDS011;35617;50.714;7.114;2022-11-20T09:14:38;28.70;;;17.40;;
49728;SDS011;35617;50.714;7.114;2022-11-20T09:17:04;28.33;;;16.43;;
49728;SDS011;35617;50.714;7.114;2022-11-20T09:19:29;30.37;;;17.37;;
49728;SDS011;35617;50.714;7.114;2022-11-20T09:21:55;29.23;;;17.47;;
49728;SDS011;35617;50.714;7.114;2022-11-20T09:24:20;29.57;;;16.43;;
49728;SDS011;35617;50.714;7.114;2022-11-20T09:26:46;28.13;;;17.60;;
49728;SDS011;35617;50.714;7.114;2022-11-20T09:29:12;28.13;;;17.17;;
49728;SDS011;35617;50.714;7.114;2022-11-20T09:31:38;28.43;;;17.07;;
49728;SDS011;35617;50.714;7.114;2022-11-20T09:34:03;32.00;;;18.60;;
49728;SDS011;35617;50.714;7.114;2022-11-20T09:36:29;26.97;;;16.67;;
49728;SDS011;35617;50.714;7.114;2022-11-20T09:38:54;29.80;;;16.63;;
49728;SDS011;35617;50.714;7.114;2022-11-20T09:48:04;28.50;;;16.13;;
49728;SDS011;35617;50.714;7.114;2022-11-20T09:50:32;27.03;;;15.37;;
49728;SDS011;35617;50.714;7.114;2022-11-20T09:56:00;24.97;;;14.97;;
49728;SDS011;35617;50.714;7.114;2022-11-20T09:58:35;26.33;;;15.67;;
49728;SDS011;35617;50.714;7.114;2022-11-20T10:01:20;27.83;;;15.07;;
49728;SDS011;35617;50.714;7.114;2022-11-20T10:04:04;25.33;;;14.90;;
49728;SDS011;35617;50.714;7.114;2022-11-20T10:09:35;23.50;;;13.63;;
49728;SDS011;35617;50.714;7.114;2022-11-20T10:12:16;23.80;;;13.83;;
49728;SDS011;35617;50.714;7.114;2022-11-20T10:18:21;24.67;;;15.07;;
49728;SDS011;35617;50.714;7.114;2022-11-20T10:26:46;22.67;;;14.10;;
49728;SDS011;35617;50.714;7.114;2022-11-20T10:29:18;24.93;;;14.03;;
49728;SDS011;35617;50.714;7.114;2022-11-20T10:31:53;25.27;;;14.13;;
49728;SDS011;35617;50.714;7.114;2022-11-20T10:34:38;26.53;;;14.73;;
49728;SDS011;35617;50.714;7.114;2022-11-20T10:37:44;23.93;;;14.03;;
49728;SDS011;35617;50.714;7.114;2022-11-20T10:42:50;23.90;;;14.23;;
49728;SDS011;35617;50.714;7.114;2022-11-20T10:47:52;21.63;;;12.63;;
49728;SDS011;35617;50.714;7.114;2022-11-20T10:50:23;22.00;;;12.90;;
49728;SDS011;35617;50.714;7.114;2022-11-20T10:58:34;22.53;;;13.60;;
49728;SDS011;35617;50.714;7.114;2022-11-20T11:01:20;21.27;;;12.73;;
49728;SDS011;35617;50.714;7.114;2022-11-20T11:03:49;22.83;;;12.73;;
49728;SDS011;35617;50.714;7.114;2022-11-20T11:08:51;21.33;;;12.00;;
49728;SDS011;35617;50.714;7.114;2022-11-20T11:11:32;23.40;;;12.17;;
49728;SDS011;35617;50.714;7.114;2022-11-20T11:14:08;22.07;;;13.40;;
49728;SDS011;35617;50.714;7.114;2022-11-20T11:16:51;21.83;;;13.37;;
49728;SDS011;35617;50.714;7.114;2022-11-20T11:19:21;20.17;;;12.63;;
49728;SDS011;35617;50.714;7.114;2022-11-20T11:21:47;21.50;;;12.97;;
49728;SDS011;35617;50.714;7.114;2022-11-20T11:24:26;24.17;;;13.00;;
49728;SDS011;35617;50.714;7.114;2022-11-20T11:27:00;22.00;;;12.57;;
49728;SDS011;35617;50.714;7.114;2022-11-20T11:29:36;22.70;;;12.90;;
49728;SDS011;35617;50.714;7.114;2022-11-20T11:34:37;24.87;;;13.73;;
49728;SDS011;35617;50.714;7.114;2022-11-20T11:37:03;26.40;;;14.67;;
49728;SDS011;35617;50.714;7.114;2022-11-20T11:39:31;28.70;;;15.13;;
49728;SDS011;35617;50.714;7.114;2022-11-20T11:41:59;23.00;;;14.17;;
49728;SDS011;35617;50.714;7.114;2022-11-20T11:44:32;25.00;;;14.63;;
49728;SDS011;35617;50.714;7.114;2022-11-20T11:47:24;25.77;;;14.10;;
49728;SDS011;35617;50.714;7.114;2022-11-20T12:07:13;23.80;;;13.43;;
49728;SDS011;35617;50.714;7.114;2022-11-20T12:09:53;23.23;;;13.47;;
49728;SDS011;35617;50.714;7.114;2022-11-20T12:12:27;22.17;;;13.43;;
49728;SDS011;35617;50.714;7.114;2022-11-20T12:15:00;27.23;;;14.47;;
49728;SDS011;35617;50.714;7.114;2022-11-20T12:17:27;24.30;;;14.27;;
49728;SDS011;35617;50.714;7.114;2022-11-20T12:19:52;26.27;;;14.40;;
49728;SDS011;35617;50.714;7.114;2022-11-20T12:30:10;23.37;;;14.13;;
49728;SDS011;35617;50.714;7.114;2022-11-20T12:35:29;24.20;;;14.70;;
49728;SDS011;35617;50.714;7.114;2022-11-20T12:41:11;23.13;;;12.93;;
49728;SDS011;35617;50.714;7.114;2022-11-20T12:52:35;23.63;;;14.47;;
49728;SDS011;35617;50.714;7.114;2022-11-20T12:55:16;23.03;;;13.43;;
49728;SDS011;35617;50.714;7.114;2022-11-20T12:58:03;24.70;;;14.40;;
49728;SDS011;35617;50.714;7.114;2022-11-20T13:00:37;21.73;;;14.05;;
49728;SDS011;35617;50.714;7.114;2022-11-20T13:03:25;24.60;;;14.15;;
49728;SDS011;35617;50.714;7.114;2022-11-20T13:09:00;22.70;;;13.63;;
49728;SDS011;35617;50.714;7.114;2022-11-20T13:17:00;18.53;;;11.77;;
49728;SDS011;35617;50.714;7.114;2022-11-20T13:19:30;22.35;;;13.00;;
49728;SDS011;35617;50.714;7.114;2022-11-20T13:21:56;21.67;;;13.17;;
49728;SDS011;35617;50.714;7.114;2022-11-20T13:24:26;21.27;;;12.93;;
49728;SDS011;35617;50.714;7.114;2022-11-20T13:29:34;20.73;;;12.50;;
49728;SDS011;35617;50.714;7.114;2022-11-20T13:32:17;21.30;;;12.00;;
49728;SDS011;35617;50.714;7.114;2022-11-20T13:34:54;20.23;;;12.18;;
49728;SDS011;35617;50.714;7.114;2022-11-20T13:37:46;19.63;;;12.47;;
49728;SDS011;35617;50.714;7.114;2022-11-20T13:40:12;18.47;;;11.27;;
49728;SDS011;35617;50.714;7.114;2022-11-20T13:45:21;19.10;;;11.87;;
49728;SDS011;35617;50.714;7.114;2022-11-20T13:47:51;21.23;;;12.20;;
49728;SDS011;35617;50.714;7.114;2022-11-20T13:50:18;20.40;;;11.73;;
49728;SDS011;35617;50.714;7.114;2022-11-20T13:52:58;18.38;;;11.88;;
49728;SDS011;35617;50.714;7.114;2022-11-20T13:55:36;19.53;;;12.80;;
49728;SDS011;35617;50.714;7.114;2022-11-20T14:00:48;25.90;;;15.07;;
49728;SDS011;35617;50.714;7.114;2022-11-20T14:03:23;19.10;;;12.33;;
49728;SDS011;35617;50.714;7.114;2022-11-20T14:06:02;19.63;;;12.67;;
49728;SDS011;35617;50.714;7.114;2022-11-20T14:11:03;18.77;;;11.83;;
49728;SDS011;35617;50.714;7.114;2022-11-20T14:13:38;19.97;;;12.43;;
49728;SDS011;35617;50.714;7.114;2022-11-20T14:16:04;19.37;;;11.90;;
49728;SDS011;35617;50.714;7.114;2022-11-20T14:18:29;17.93;;;11.37;;
49728;SDS011;35617;50.714;7.114;2022-11-20T14:20:55;17.03;;;11.23;;
49728;SDS011;35617;50.714;7.114;2022-11-20T14:23:27;18.50;;;11.93;;
49728;SDS011;35617;50.714;7.114;2022-11-20T14:25:54;17.50;;;10.83;;
49728;SDS011;35617;50.714;7.114;2022-11-20T14:28:25;18.43;;;11.57;;
49728;SDS011;35617;50.714;7.114;2022-11-20T14:30:52;19.73;;;11.27;;
49728;SDS011;35617;50.714;7.114;2022-11-20T14:33:18;19.80;;;11.33;;
49728;SDS011;35617;50.714;7.114;2022-11-20T14:35:46;17.83;;;10.63;;
49728;SDS011;35617;50.714;7.114;2022-11-20T14:38:17;17.50;;;10.40;;
49728;SDS011;35617;50.714;7.114;2022-11-20T14:40:46;16.27;;;10.80;;
49728;SDS011;35617;50.714;7.114;2022-11-20T14:43:19;18.40;;;10.90;;
49728;SDS011;35617;50.714;7.114;2022-11-20T14:46:02;16.13;;;10.10;;
49728;SDS011;35617;50.714;7.114;2022-11-20T14:48:40;17.77;;;10.43;;
49728;SDS011;35617;50.714;7.114;2022-11-20T14:51:34;15.47;;;10.03;;
49728;SDS011;35617;50.714;7.114;2022-11-20T14:56:53;15.83;;;9.90;;
49728;SDS011;35617;50.714;7.114;2022-11-20T14:59:24;16.90;;;10.23;;
49728;SDS011;35617;50.714;7.114;2022-11-20T15:01:55;16.23;;;10.47;;
49728;SDS011;35617;50.714;7.114;2022-11-20T15:04:23;17.77;;;10.27;;
49728;SDS011;35617;50.714;7.114;2022-11-20T15:06:52;17.60;;;10.10;;
49728;SDS011;35617;50.714;7.114;2022-11-20T15:09:19;18.50;;;10.33;;
49728;SDS011;35617;50.714;7.114;2022-11-20T15:11:58;17.47;;;10.13;;
49728;SDS011;35617;50.714;7.114;2022-11-20T15:14:26;15.07;;;9.27;;
49728;SDS011;35617;50.714;7.114;2022-11-20T15:16:53;13.23;;;7.60;;
49728;SDS011;35617;50.714;7.114;2022-11-20T15:19:23;14.67;;;7.77;;
49728;SDS011;35617;50.714;7.114;2022-11-20T15:21:50;11.87;;;6.50;;
49728;SDS011;35617;50.714;7.114;2022-11-20T15:24:16;10.40;;;5.17;;
49728;SDS011;35617;50.714;7.114;2022-11-20T15:26:42;10.43;;;5.27;;
49728;SDS011;35617;50.714;7.114;2022-11-20T15:29:09;9.93;;;4.70;;
49728;SDS011;35617;50.714;7.114;2022-11-20T15:31:37;8.10;;;4.33;;
49728;SDS011;35617;50.714;7.114;2022-11-20T15:34:08;7.30;;;3.23;;
49728;SDS011;35617;50.714;7.114;2022-11-20T15:36:39;7.07;;;3.13;;
49728;SDS011;35617;50.714;7.114;2022-11-20T15:39:05;7.97;;;2.80;;
49728;SDS011;35617;50.714;7.114;2022-11-20T15:41:32;4.70;;;2.40;;
49728;SDS011;35617;50.714;7.114;2022-11-20T15:43:58;5.57;;;2.20;;
49728;SDS011;35617;50.714;7.114;2022-11-20T15:46:28;5.00;;;1.80;;
49728;SDS011;35617;50.714;7.114;2022-11-20T15:49:02;4.53;;;1.60;;
49728;SDS011;35617;50.714;7.114;2022-11-20T15:51:30;6.77;;;2.13;;
49728;SDS011;35617;50.714;7.114;2022-11-20T15:53:56;6.17;;;2.90;;
49728;SDS011;35617;50.714;7.114;2022-11-20T15:56:23;6.73;;;3.20;;
49728;SDS011;35617;50.714;7.114;2022-11-20T15:58:49;9.80;;;4.87;;
49728;SDS011;35617;50.714;7.114;2022-11-20T16:01:18;13.00;;;7.07;;
49728;SDS011;35617;50.714;7.114;2022-11-20T16:03:46;11.73;;;5.50;;
49728;SDS011;35617;50.714;7.114;2022-11-20T16:06:12;10.03;;;6.03;;
49728;SDS011;35617;50.714;7.114;2022-11-20T16:08:37;12.87;;;6.43;;
49728;SDS011;35617;50.714;7.114;2022-11-20T16:11:03;11.00;;;6.10;;
49728;SDS011;35617;50.714;7.114;2022-11-20T16:13:30;9.43;;;4.73;;
49728;SDS011;35617;50.714;7.114;2022-11-20T16:16:22;9.07;;;5.33;;